Time;durP1;ratioP1;P1;durP2;ratioP2;P2;SDS_P1;SDS_P2;PMS_P1;PMS_P2;Temp;Humidity;BMP_temperature;BMP_pressure;BME280_temperature;BME280_humidity;BME280_pressure;Samples;Min_cycle;Max_cycle;Signal;HPM_P1;HPM_P2
2022/01/13 00:02:40;;;;;;;106.68;24.08;;;;;;;0.82;100.00;104071.16;5053083;28;20089;-79
2022/01/13 00:08:27;;;;;;;152.15;26.27;;;;;;;0.84;100.00;104073.72;5052777;28;20052;-79
2022/01/13 00:20:30;;;;;;;96.35;21.98;;;;;;;0.93;100.00;104075.94;5053011;28;20107;-80
2022/01/13 00:32:03;;;;;;;85.25;21.92;;;;;;;0.85;100.00;104085.97;5052584;28;20051;-80
2022/01/13 00:37:50;;;;;;;90.47;20.73;;;;;;;0.83;100.00;104078.13;5052658;28;20048;-81
2022/01/13 00:43:40;;;;;;;61.03;17.70;;;;;;;0.93;100.00;104086.50;5052427;28;20570;-78
2022/01/13 00:49:27;;;;;;;77.97;21.73;;;;;;;0.81;100.00;104066.81;5052592;28;20105;-81
2022/01/13 00:55:20;;;;;;;83.57;20.90;;;;;;;0.89;100.00;104059.44;5052719;28;20052;-80
2022/01/13 00:57:46;;;;;;;74.90;20.60;;;;;;;0.89;100.00;104054.16;5034085;28;20029;-80
2022/01/13 01:00:12;;;;;;;83.32;21.42;;;;;;;0.95;100.00;104057.44;5051130;28;20378;-80
2022/01/13 01:02:37;;;;;;;102.28;23.67;;;;;;;0.92;100.00;104048.75;5033904;28;20029;-80
2022/01/13 01:12:14;;;;;;;118.80;20.40;;;;;;;0.75;100.00;104059.19;5051674;28;20056;-80
2022/01/13 01:18:08;;;;;;;66.75;19.25;;;;;;;0.67;100.00;104048.19;5052115;28;20125;-81
2022/01/13 01:23:56;;;;;;;62.65;18.17;;;;;;;0.75;100.00;104053.94;5051593;28;19946;-81
2022/01/13 01:29:51;;;;;;;68.00;18.63;;;;;;;0.78;100.00;104068.75;5051857;28;20099;-79
2022/01/13 01:35:38;;;;;;;79.75;20.52;;;;;;;0.74;100.00;104052.22;5051115;28;20098;-79
2022/01/13 01:41:27;;;;;;;88.22;18.55;;;;;;;0.76;100.00;104050.38;5051707;28;20055;-79
2022/01/13 01:47:16;;;;;;;93.45;19.50;;;;;;;0.73;100.00;104047.88;5051672;28;20048;-80
2022/01/13 01:53:04;;;;;;;133.10;23.15;;;;;;;0.76;100.00;104060.91;5051604;28;20127;-79
2022/01/13 01:58:51;;;;;;;88.05;21.75;;;;;;;0.72;100.00;104043.53;5051633;28;20056;-79
2022/01/13 02:01:17;;;;;;;89.22;21.42;;;;;;;0.70;100.00;104036.66;5050421;28;20049;-80
2022/01/13 02:07:07;;;;;;;69.95;21.65;;;;;;;0.73;100.00;104042.63;5051611;28;20119;-78
2022/01/13 02:09:37;;;;;;;81.90;19.48;;;;;;;0.75;100.00;104053.09;5033051;28;20119;-78
2022/01/13 02:15:33;;;;;;;74.03;18.27;;;;;;;0.66;100.00;104049.09;5050869;28;20124;-80
2022/01/13 02:21:20;;;;;;;71.55;15.68;;;;;;;0.65;100.00;104057.94;5052541;28;20044;-80
2022/01/13 02:27:08;;;;;;;68.35;15.18;;;;;;;0.70;100.00;104058.56;5054456;28;20078;-80
2022/01/13 02:29:34;;;;;;;75.20;17.23;;;;;;;0.68;100.00;104062.19;5054421;28;20024;-80
2022/01/13 02:35:25;;;;;;;112.78;21.38;;;;;;;0.54;100.00;104049.63;5054453;28;20056;-81
2022/01/13 02:37:50;;;;;;;98.03;17.67;;;;;;;0.56;100.00;104047.78;5053351;28;20041;-80
2022/01/13 02:43:37;;;;;;;120.82;21.17;;;;;;;0.35;100.00;104049.63;5054399;28;20405;-80
2022/01/13 02:46:43;;;;;;;118.88;17.92;;;;;;;0.30;100.00;104051.63;5036168;28;20032;-80
2022/01/13 02:52:33;;;;;;;84.47;17.40;;;;;;;0.41;100.00;104054.63;5054561;28;20140;-80
2022/01/13 02:54:58;;;;;;;161.80;23.35;;;;;;;0.32;100.00;104044.50;5053121;28;20059;-81
2022/01/13 02:57:24;;;;;;;167.55;23.05;;;;;;;0.40;100.00;104058.16;5053779;28;20460;-81
2022/01/13 03:07:00;;;;;;;101.53;18.40;;;;;;;0.46;100.00;104063.16;5054142;28;20102;-79
2022/01/13 03:12:31;;;;;;;95.25;16.83;;;;;;;0.38;100.00;104048.63;5053492;28;19993;-79
2022/01/13 03:14:56;;;;;;;92.43;19.25;;;;;;;0.40;100.00;104046.78;5052833;28;20408;-80
2022/01/13 03:17:21;;;;;;;109.30;16.42;;;;;;;0.41;100.00;104037.97;5053593;28;20029;-79
2022/01/13 03:19:47;;;;;;;74.32;17.30;;;;;;;0.37;100.00;104041.66;5034864;28;20049;-79
2022/01/13 03:22:14;;;;;;;103.50;17.20;;;;;;;0.50;100.00;104045.44;5053531;28;20362;-79
2022/01/13 03:28:05;;;;;;;81.80;17.85;;;;;;;0.44;100.00;104036.03;5053593;28;20040;-80
2022/01/13 03:30:32;;;;;;;82.85;18.98;;;;;;;0.45;100.00;104034.25;5053243;28;20112;-80
2022/01/13 03:32:57;;;;;;;114.70;18.83;;;;;;;0.50;100.00;104041.03;5051584;28;20044;-80
2022/01/13 03:35:23;;;;;;;112.55;17.27;;;;;;;0.47;100.00;104032.41;5035410;28;20024;-80
2022/01/13 03:37:48;;;;;;;71.85;17.65;;;;;;;0.52;100.00;104028.66;5031079;28;20501;-80
2022/01/13 03:47:32;;;;;;;65.25;15.90;;;;;;;0.55;100.00;104027.66;5053439;28;20047;-80
2022/01/13 03:49:57;;;;;;;78.65;19.25;;;;;;;0.57;100.00;104025.81;5034363;28;20048;-80
2022/01/13 03:59:26;;;;;;;67.55;18.73;;;;;;;0.56;100.00;104022.31;5053271;28;20187;-80
2022/01/13 04:02:25;;;;;;;82.28;19.52;;;;;;;0.57;100.00;104020.53;5052409;28;20389;-79
2022/01/13 04:04:50;;;;;;;84.85;19.67;;;;;;;0.58;100.00;104017.00;5032718;28;20064;-79
2022/01/13 04:07:24;;;;;;;184.48;26.98;;;;;;;0.52;100.00;104022.53;5052812;28;20481;-79
2022/01/13 04:16:47;;;;;;;190.48;26.13;;;;;;;0.29;100.00;104013.06;5052863;28;20043;-79
2022/01/13 04:19:13;;;;;;;175.88;24.77;;;;;;;0.26;100.00;104007.91;5052679;28;20406;-82
2022/01/13 04:21:38;;;;;;;156.23;23.88;;;;;;;0.23;100.00;104008.91;5051731;28;20075;-80
2022/01/13 04:27:32;;;;;;;97.63;21.02;;;;;;;0.29;100.00;104011.28;5052852;28;20051;-79
2022/01/13 04:33:19;;;;;;;111.32;20.92;;;;;;;0.48;100.00;104026.22;5052894;28;20833;-80
2022/01/13 04:39:08;;;;;;;150.45;23.92;;;;;;;0.43;100.00;104009.78;5052257;28;20094;-79
2022/01/13 04:44:55;;;;;;;203.32;28.50;;;;;;;0.41;100.00;104006.38;5051730;28;20048;-79
2022/01/13 04:50:43;;;;;;;143.25;25.17;;;;;;;0.38;100.00;104017.91;5051825;28;20094;-80
2022/01/13 04:56:43;;;;;;;182.18;26.45;;;;;;;0.36;100.00;104003.97;5052211;28;20545;-80
2022/01/13 05:02:30;;;;;;;101.40;18.83;;;;;;;0.25;100.00;104000.94;5052421;28;20044;-80
2022/01/13 05:04:55;;;;;;;244.55;29.58;;;;;;;0.23;100.00;103997.53;5051116;28;20057;-79
2022/01/13 05:07:21;;;;;;;175.00;24.50;;;;;;;0.23;100.00;104008.06;5051985;28;20492;-78
2022/01/13 05:13:10;;;;;;;113.28;20.27;;;;;;;0.27;100.00;103999.94;5051967;28;20066;-79
2022/01/13 05:19:11;;;;;;;158.18;25.30;;;;;;;0.20;100.00;104003.78;5052093;28;20060;-78
2022/01/13 05:24:58;;;;;;;151.93;23.58;;;;;;;0.21;100.00;104021.28;5051984;28;20128;-80
2022/01/13 05:30:45;;;;;;;106.03;21.25;;;;;;;0.34;100.00;104007.59;5051982;28;20051;-80
2022/01/13 05:33:11;;;;;;;124.20;22.52;;;;;;;0.37;100.00;104015.34;5033599;28;20037;-80
2022/01/13 05:35:36;;;;;;;189.85;24.88;;;;;;;0.39;100.00;104010.88;5049459;28;20037;-80
2022/01/13 05:41:23;;;;;;;203.38;23.00;;;;;;;0.46;100.00;104002.59;5051754;28;20052;-81
2022/01/13 05:43:49;;;;;;;245.73;28.52;;;;;;;0.43;100.00;104007.16;5051389;28;20028;-81
2022/01/13 05:46:14;;;;;;;416.10;42.20;;;;;;;0.37;100.00;104020.59;5050991;28;20141;-81
2022/01/13 05:48:39;;;;;;;232.35;25.98;;;;;;;0.29;100.00;104013.91;5034293;28;20163;-81
2022/01/13 05:58:04;;;;;;;402.83;33.22;;;;;;;0.27;100.00;104014.88;5055311;28;20095;-79
2022/01/13 06:00:30;;;;;;;256.45;26.27;;;;;;;0.23;100.00;104006.28;5036695;28;20366;-79
2022/01/13 06:02:55;;;;;;;250.90;29.10;;;;;;;0.28;100.00;104011.31;5054689;28;20040;-79
2022/01/13 06:05:21;;;;;;;195.10;27.02;;;;;;;0.28;100.00;104016.59;5053880;28;20043;-79
2022/01/13 06:11:07;;;;;;;156.77;24.73;;;;;;;0.43;100.00;104015.06;5055054;28;20409;-80
2022/01/13 06:16:54;;;;;;;415.95;37.83;;;;;;;0.41;100.00;104012.50;5055019;28;20040;-80
2022/01/13 06:22:44;;;;;;;381.38;35.08;;;;;;;0.37;100.00;104000.41;5054750;28;20397;-80
2022/01/13 06:28:31;;;;;;;153.75;25.75;;;;;;;0.37;100.00;103994.28;5054105;28;20044;-80
2022/01/13 06:34:18;;;;;;;150.23;24.27;;;;;;;0.46;100.00;103997.34;5054104;28;20444;-79
2022/01/13 06:40:06;;;;;;;155.98;21.90;;;;;;;0.53;100.00;104005.81;5054489;28;20378;-79
2022/01/13 06:45:53;;;;;;;137.18;26.05;;;;;;;0.58;100.00;104009.97;5054423;28;20055;-80
2022/01/13 06:51:43;;;;;;;217.07;23.45;;;;;;;0.50;100.00;103992.78;5054529;28;20044;-79
2022/01/13 06:57:30;;;;;;;155.93;25.42;;;;;;;0.50;100.00;103980.47;5054306;28;20516;-80
2022/01/13 07:03:21;;;;;;;114.88;19.58;;;;;;;0.45;100.00;103993.00;5054349;28;20044;-82
2022/01/13 07:09:22;;;;;;;118.70;20.83;;;;;;;0.58;100.00;104006.47;5053116;28;20051;-83
2022/01/13 07:11:47;;;;;;;214.20;25.25;;;;;;;0.65;100.00;104010.53;5035289;28;20048;-77
2022/01/13 07:14:13;;;;;;;151.93;21.55;;;;;;;0.63;100.00;104001.84;5035794;28;20075;-80
2022/01/13 07:16:41;;;;;;;94.50;21.90;;;;;;;0.59;100.00;103995.88;5035789;28;20116;-77
2022/01/13 07:25:51;;;;;;;109.15;20.17;;;;;;;0.69;100.00;104000.69;5053690;28;20082;-80
2022/01/13 07:31:38;;;;;;;112.13;20.38;;;;;;;0.73;100.00;104011.03;5053463;28;20048;-79
2022/01/13 07:37:25;;;;;;;92.05;18.17;;;;;;;0.71;100.00;103993.59;5052756;28;20169;-78
2022/01/13 07:43:13;;;;;;;94.57;17.80;;;;;;;0.78;100.00;104005.53;5053212;28;20122;-80
2022/01/13 07:52:52;;;;;;;83.18;19.98;;;;;;;0.82;100.00;104010.56;5052822;28;20110;-79
2022/01/13 07:58:40;;;;;;;81.00;16.17;;;;;;;0.76;100.00;104008.25;5052675;28;20187;-80
2022/01/13 08:01:06;;;;;;;82.68;16.58;;;;;;;0.80;100.00;104019.47;5034025;28;20186;-79
2022/01/13 08:06:53;;;;;;;88.85;18.00;;;;;;;0.84;100.00;104026.31;5052753;28;20075;-80
2022/01/13 08:13:04;;;;;;;144.13;20.67;;;;;;;0.80;100.00;104025.59;5052420;28;20056;-79
2022/01/13 08:15:31;;;;;;;97.75;20.48;;;;;;;0.80;100.00;104024.75;5034080;28;20116;-79
2022/01/13 08:21:53;;;;;;;88.93;19.67;;;;;;;0.88;100.00;104028.75;5052382;28;20044;-80
2022/01/13 08:27:58;;;;;;;80.82;18.15;;;;;;;0.95;100.00;104039.00;5052290;28;20051;-80
2022/01/13 08:33:49;;;;;;;91.28;18.25;;;;;;;1.01;100.00;104034.28;5052001;28;20373;-79
2022/01/13 08:39:44;;;;;;;95.55;20.45;;;;;;;1.08;100.00;104045.38;5051920;28;20036;-80
2022/01/13 08:45:14;;;;;;;94.43;18.50;;;;;;;1.17;100.00;104050.22;5051972;28;20331;-79
2022/01/13 08:51:03;;;;;;;87.63;21.25;;;;;;;1.14;100.00;104050.34;5051857;28;20040;-80
2022/01/13 08:56:49;;;;;;;111.63;19.42;;;;;;;1.16;100.00;104056.44;5051711;28;20044;-80
2022/01/13 09:02:55;;;;;;;91.40;19.67;;;;;;;1.25;100.00;104048.06;5051474;28;20056;-80
2022/01/13 09:08:42;;;;;;;88.95;20.10;;;;;;;1.33;100.00;104064.38;5051875;28;20043;-78
2022/01/13 09:14:31;;;;;;;120.80;20.85;;;;;;;1.30;100.00;104059.25;5051638;28;20114;-78
2022/01/13 09:20:18;;;;;;;93.20;17.77;;;;;;;1.42;100.00;104069.19;5051414;28;20044;-75
2022/01/13 09:26:06;;;;;;;101.15;18.55;;;;;;;1.45;100.00;104061.16;5051699;28;20394;-79
2022/01/13 09:31:53;;;;;;;128.98;20.35;;;;;;;1.53;100.00;104069.53;5050810;28;20090;-80
2022/01/13 09:37:40;;;;;;;148.93;22.25;;;;;;;1.58;100.00;104058.75;5051526;28;20091;-79
2022/01/13 09:43:28;;;;;;;139.70;21.48;;;;;;;1.53;100.00;104069.53;5051329;28;20109;-80
2022/01/13 09:49:15;;;;;;;88.93;19.98;;;;;;;1.59;100.00;104071.00;5051317;28;20028;-78
2022/01/13 09:55:03;;;;;;;90.50;22.73;;;;;;;1.71;100.00;104074.81;5051365;28;20115;-78
2022/01/13 10:00:50;;;;;;;115.32;21.35;;;;;;;1.65;100.00;104069.84;5051340;28;20095;-78
2022/01/13 10:06:44;;;;;;;154.85;24.65;;;;;;;1.72;100.00;104076.53;5051486;28;20056;-79
2022/01/13 10:12:38;;;;;;;124.00;20.92;;;;;;;1.82;100.00;104075.16;5051101;28;20072;-79
2022/01/13 10:21:09;;;;;;;114.95;24.27;;;;;;;1.91;100.00;104073.81;5051187;28;20087;-80
2022/01/13 10:27:03;;;;;;;85.18;20.95;;;;;;;1.97;100.00;104076.16;5050308;28;20401;-82
2022/01/13 10:32:34;;;;;;;114.50;21.58;;;;;;;2.06;100.00;104073.91;5050293;28;19924;-82
2022/01/13 10:38:21;;;;;;;69.72;20.38;;;;;;;2.02;100.00;104067.06;5050937;28;20040;-83
2022/01/13 10:48:25;;;;;;;156.57;27.45;;;;;;;1.88;100.00;104076.63;5053801;28;20043;-85
2022/01/13 10:54:24;;;;;;;184.60;31.88;;;;;;;1.75;100.00;104056.16;5053837;28;20460;-81
2022/01/13 11:00:23;;;;;;;123.55;22.83;;;;;;;1.72;100.00;104061.53;5053753;28;20051;-81
2022/01/13 11:06:11;;;;;;;108.35;23.38;;;;;;;1.83;100.00;104055.75;5053197;28;20095;-79
2022/01/13 11:11:58;;;;;;;88.50;21.83;;;;;;;1.89;100.00;104039.59;5053787;28;20044;-82
2022/01/13 11:17:45;;;;;;;132.52;23.48;;;;;;;1.98;100.00;104023.28;5053054;28;20055;-82
2022/01/13 11:23:34;;;;;;;107.22;24.25;;;;;;;1.94;100.00;104021.75;5053324;28;20071;-83
2022/01/13 11:29:23;;;;;;;119.25;22.40;;;;;;;1.97;100.00;104024.22;5053266;28;20381;-82
2022/01/13 11:35:12;;;;;;;91.93;19.75;;;;;;;2.12;100.00;104020.81;5052792;28;20048;-78
2022/01/13 11:41:02;;;;;;;86.28;19.80;;;;;;;2.27;100.00;104031.47;5052929;28;20048;-79
2022/01/13 11:46:49;;;;;;;132.48;24.55;;;;;;;2.26;100.00;104021.84;5052999;28;20594;-79
2022/01/13 11:53:10;;;;;;;104.82;23.33;;;;;;;2.36;100.00;104023.09;5052430;28;20044;-80
2022/01/13 11:58:51;;;;;;;89.80;18.48;;;;;;;2.32;100.00;104016.28;5052822;28;20039;-79
2022/01/13 12:05:00;;;;;;;89.32;20.65;;;;;;;2.44;100.00;104018.25;5052420;28;20047;-79
2022/01/13 12:10:48;;;;;;;100.70;20.83;;;;;;;2.45;100.00;104012.03;5052522;28;20401;-80
2022/01/13 12:16:56;;;;;;;70.97;21.65;;;;;;;2.64;100.00;104001.31;5051545;28;20051;-79
2022/01/13 12:22:50;;;;;;;78.60;21.83;;;;;;;2.65;100.00;103998.59;5052340;28;20090;-80
2022/01/13 12:28:37;;;;;;;82.78;20.30;;;;;;;2.62;100.00;103990.84;5051948;28;20417;-83
2022/01/13 12:34:33;;;;;;;77.72;21.77;;;;;;;2.77;100.00;103983.84;5052157;28;20397;-82
2022/01/13 12:40:24;;;;;;;94.20;21.92;;;;;;;2.98;100.00;103979.16;5051825;28;20052;-77
2022/01/13 12:42:52;;;;;;;68.60;19.13;;;;;;;2.97;100.00;103974.81;5050961;28;20041;-77
2022/01/13 12:48:42;;;;;;;78.63;20.63;;;;;;;3.03;100.00;103964.75;5051215;28;20486;-77
2022/01/13 12:54:29;;;;;;;75.63;20.23;;;;;;;2.95;100.00;103959.03;5051175;28;20082;-77
2022/01/13 13:00:19;;;;;;;80.53;18.77;;;;;;;3.03;100.00;103946.22;5051937;28;20455;-77
2022/01/13 13:06:13;;;;;;;79.85;20.35;;;;;;;3.04;100.00;103944.44;5051647;28;20094;-78
2022/01/13 13:08:45;;;;;;;97.50;24.15;;;;;;;2.99;100.00;103941.22;5050577;28;20033;-78
2022/01/13 13:15:39;;;;;;;101.55;22.63;;;;;;;3.01;100.00;103934.06;5051604;28;20162;-77
2022/01/13 13:20:43;;;;;;;100.57;24.08;;;;;;;3.00;100.00;103941.13;5051925;28;20551;-80
2022/01/13 13:26:30;;;;;;;78.97;21.73;;;;;;;2.94;100.00;103935.34;5050502;28;20048;-81
2022/01/13 13:32:19;;;;;;;114.80;22.75;;;;;;;2.92;100.00;103938.09;5051575;28;20043;-86
2022/01/13 13:38:13;;;;;;;93.05;20.55;;;;;;;2.95;100.00;103927.34;5051253;28;20099;-82
2022/01/13 13:44:01;;;;;;;72.18;18.80;;;;;;;3.00;100.00;103935.00;5051357;28;20068;-79
2022/01/13 13:49:57;;;;;;;102.10;24.17;;;;;;;2.96;100.00;103925.53;5051102;28;20086;-79
2022/01/13 13:55:57;;;;;;;104.07;21.80;;;;;;;2.85;100.00;103928.78;5051331;28;20424;-78
2022/01/13 14:02:11;;;;;;;98.65;20.52;;;;;;;2.88;100.00;103919.81;5051098;28;20102;-79
2022/01/13 14:04:45;;;;;;;119.13;21.83;;;;;;;2.88;100.00;103907.47;5049894;28;20064;-79
2022/01/13 14:10:32;;;;;;;106.88;29.67;;;;;;;2.97;100.00;103903.47;5051258;28;20109;-79
2022/01/13 14:20:04;;;;;;;143.25;27.05;;;;;;;3.02;100.00;103898.75;5055068;28;20094;-79
2022/01/13 14:26:03;;;;;;;86.60;21.88;;;;;;;2.75;100.00;103896.75;5054689;28;20551;-78
2022/01/13 14:31:50;;;;;;;117.60;21.95;;;;;;;2.73;100.00;103879.28;5054679;28;20072;-80
2022/01/13 14:37:37;;;;;;;127.20;21.52;;;;;;;2.71;100.00;103886.44;5054505;28;20052;-78
2022/01/13 14:43:24;;;;;;;130.25;24.40;;;;;;;2.73;100.00;103893.34;5055014;28;20393;-78
2022/01/13 14:49:12;;;;;;;111.47;26.85;;;;;;;2.73;100.00;103889.84;5054581;28;20094;-78
2022/01/13 14:54:59;;;;;;;212.70;26.85;;;;;;;2.76;100.00;103900.25;5054531;28;20070;-79
2022/01/13 15:00:46;;;;;;;137.57;22.67;;;;;;;2.69;100.00;103897.09;5051913;28;20044;-80
2022/01/13 15:06:34;;;;;;;102.15;19.63;;;;;;;2.57;100.00;103887.22;5054286;28;20091;-79
2022/01/13 15:12:21;;;;;;;88.28;19.83;;;;;;;2.49;100.00;103889.44;5054458;28;20094;-78
2022/01/13 15:18:08;;;;;;;89.90;21.83;;;;;;;2.55;100.00;103867.97;5053861;28;20044;-78
2022/01/13 15:23:55;;;;;;;135.68;22.42;;;;;;;2.61;100.00;103878.22;5053544;28;20056;-78
2022/01/13 15:29:42;;;;;;;108.45;19.38;;;;;;;2.63;100.00;103868.41;5052103;28;20090;-79
2022/01/13 15:35:29;;;;;;;121.57;20.73;;;;;;;2.65;100.00;103863.03;5053844;28;20080;-79
2022/01/13 15:41:17;;;;;;;110.82;18.48;;;;;;;2.59;100.00;103861.56;5053820;28;20453;-78
2022/01/13 15:47:04;;;;;;;77.50;17.25;;;;;;;2.56;100.00;103861.75;5053595;28;20102;-78
2022/01/13 15:52:52;;;;;;;96.00;18.88;;;;;;;2.52;100.00;103877.84;5052710;28;20043;-78
2022/01/13 15:58:40;;;;;;;76.07;17.25;;;;;;;2.52;100.00;103864.66;5053536;28;20067;-81
2022/01/13 16:04:27;;;;;;;126.38;18.80;;;;;;;2.51;100.00;103877.00;5053014;28;20076;-79
2022/01/13 16:06:52;;;;;;;100.70;18.63;;;;;;;2.55;100.00;103878.53;5051618;28;20045;-79
2022/01/13 16:12:42;;;;;;;63.60;16.27;;;;;;;2.58;100.00;103888.91;5052210;28;20421;-78
2022/01/13 16:18:29;;;;;;;88.30;17.95;;;;;;;2.54;100.00;103883.91;5052565;28;20044;-80
2022/01/13 16:24:16;;;;;;;92.68;16.77;;;;;;;2.60;100.00;103892.34;5052573;28;20106;-80
2022/01/13 16:30:13;;;;;;;83.18;17.90;;;;;;;2.61;100.00;103899.34;5052404;28;20040;-80
2022/01/13 16:36:01;;;;;;;132.00;18.55;;;;;;;2.64;100.00;103895.66;5051797;28;20075;-80
2022/01/13 16:41:48;;;;;;;149.63;21.23;;;;;;;2.60;100.00;103879.16;5052224;28;20048;-80
2022/01/13 16:47:37;;;;;;;86.78;18.02;;;;;;;2.68;100.00;103891.91;5052849;28;20051;-79
2022/01/13 16:53:23;;;;;;;72.22;18.40;;;;;;;2.65;100.00;103886.81;5052635;28;20161;-79
2022/01/13 16:55:49;;;;;;;90.85;18.35;;;;;;;2.66;100.00;103883.22;5037403;28;20493;-80
2022/01/13 17:01:37;;;;;;;97.28;19.67;;;;;;;2.66;100.00;103891.16;5053181;28;20031;-80
2022/01/13 17:11:04;;;;;;;89.72;16.85;;;;;;;2.65;100.00;103886.81;5052280;28;20496;-80
2022/01/13 17:16:53;;;;;;;80.38;17.88;;;;;;;2.61;100.00;103880.84;5052041;28;20055;-79
2022/01/13 17:22:40;;;;;;;101.05;18.40;;;;;;;2.62;100.00;103884.34;5052199;28;20124;-79
2022/01/13 17:28:29;;;;;;;83.53;17.60;;;;;;;2.64;100.00;103883.31;5051665;28;20099;-80
2022/01/13 17:34:16;;;;;;;98.07;17.52;;;;;;;2.63;100.00;103892.19;5051497;28;20702;-79
2022/01/13 17:40:07;;;;;;;85.22;16.77;;;;;;;2.67;100.00;103898.97;5051962;28;20519;-78
2022/01/13 17:45:54;;;;;;;189.73;36.47;;;;;;;2.64;100.00;103890.38;5052091;28;20102;-77
2022/01/13 17:51:41;;;;;;;118.30;27.35;;;;;;;2.63;100.00;103886.91;5051744;28;20423;-77
2022/01/13 17:57:28;;;;;;;120.30;28.30;;;;;;;2.62;100.00;103877.25;5055230;28;20056;-78
2022/01/13 18:03:28;;;;;;;113.65;32.70;;;;;;;2.69;100.00;103881.25;5055282;28;20166;-80
2022/01/13 18:09:15;;;;;;;103.30;20.65;;;;;;;2.62;100.00;103871.13;5055110;28;20095;-78
2022/01/13 18:15:05;;;;;;;94.72;18.63;;;;;;;2.63;100.00;103867.56;5054877;28;20139;-76
2022/01/13 18:20:52;;;;;;;83.97;20.20;;;;;;;2.76;100.00;103873.81;5054778;28;20124;-77
2022/01/13 18:26:39;;;;;;;87.32;18.98;;;;;;;2.68;100.00;103862.84;5055078;28;20147;-78
2022/01/13 18:32:26;;;;;;;120.20;20.80;;;;;;;2.70;100.00;103855.69;5054958;28;20048;-79
2022/01/13 18:38:13;;;;;;;90.30;19.27;;;;;;;2.72;100.00;103844.09;5054423;28;20447;-77
2022/01/13 18:44:01;;;;;;;87.05;19.45;;;;;;;2.68;100.00;103842.56;5054590;28;20448;-77
2022/01/13 18:49:49;;;;;;;110.20;18.35;;;;;;;2.68;100.00;103839.94;5054603;28;20039;-77
2022/01/13 18:55:37;;;;;;;80.85;18.50;;;;;;;2.58;100.00;103841.38;5053873;28;21562;-78
2022/01/13 19:01:24;;;;;;;123.75;21.73;;;;;;;2.58;100.00;103843.16;5054136;28;20048;-77
2022/01/13 19:07:11;;;;;;;104.65;19.15;;;;;;;2.49;100.00;103836.63;5053996;28;20100;-78
2022/01/13 19:12:58;;;;;;;126.97;22.08;;;;;;;2.52;100.00;103833.81;5054223;28;20523;-78
2022/01/13 19:18:45;;;;;;;86.60;19.42;;;;;;;2.52;100.00;103828.53;5054128;28;20110;-78
2022/01/13 19:24:32;;;;;;;109.07;20.60;;;;;;;2.56;100.00;103819.47;5054174;28;20122;-79
2022/01/13 19:30:22;;;;;;;126.07;20.60;;;;;;;2.55;100.00;103820.41;5053974;28;20048;-79
2022/01/13 19:36:11;;;;;;;97.10;20.83;;;;;;;2.51;100.00;103824.19;5053661;28;20350;-78
2022/01/13 19:42:00;;;;;;;114.78;19.00;;;;;;;2.48;100.00;103821.72;5053556;28;20052;-79
2022/01/13 19:47:47;;;;;;;75.15;17.08;;;;;;;2.53;100.00;103829.38;5053730;28;20052;-78
2022/01/13 19:53:37;;;;;;;83.13;19.95;;;;;;;2.38;100.00;103810.00;5053646;28;20098;-77
2022/01/13 19:59:24;;;;;;;121.72;22.33;;;;;;;2.31;100.00;103808.59;5053471;28;20044;-79
2022/01/13 20:05:11;;;;;;;108.57;21.67;;;;;;;2.27;100.00;103801.81;5053165;28;20060;-80
2022/01/13 20:07:36;;;;;;;100.55;20.63;;;;;;;2.26;100.00;103805.38;5052835;28;20028;-79
2022/01/13 20:13:26;;;;;;;143.68;23.45;;;;;;;2.27;100.00;103807.09;5052576;28;20062;-80
2022/01/13 20:15:52;;;;;;;96.97;20.92;;;;;;;2.25;100.00;103801.03;5052095;28;20029;-80
2022/01/13 20:21:39;;;;;;;90.88;20.05;;;;;;;2.30;100.00;103818.31;5053148;28;20063;-79
2022/01/13 20:24:05;;;;;;;109.20;21.38;;;;;;;2.26;100.00;103816.78;5051913;28;20045;-79
2022/01/13 20:29:52;;;;;;;103.07;20.90;;;;;;;2.24;100.00;103804.63;5053282;28;20043;-80
2022/01/13 20:35:40;;;;;;;78.43;20.15;;;;;;;2.24;100.00;103809.91;5053336;28;20505;-78
2022/01/13 20:41:27;;;;;;;158.18;24.83;;;;;;;2.26;100.00;103810.66;5052250;28;20148;-80
2022/01/13 20:47:14;;;;;;;92.63;20.35;;;;;;;2.28;100.00;103809.63;5052860;28;20052;-77
2022/01/13 20:53:02;;;;;;;71.55;18.33;;;;;;;2.27;100.00;103804.44;5052629;28;20044;-78
2022/01/13 20:55:27;;;;;;;67.53;18.48;;;;;;;2.34;100.00;103824.31;5051468;28;20033;-78
2022/01/13 21:01:16;;;;;;;57.13;17.58;;;;;;;2.32;100.00;103821.75;5052567;28;20048;-79
2022/01/13 21:07:03;;;;;;;80.88;18.30;;;;;;;2.25;100.00;103814.25;5052087;28;20142;-78
2022/01/13 21:12:51;;;;;;;95.10;19.00;;;;;;;2.13;100.00;103806.09;5052551;28;20106;-79
2022/01/13 21:18:43;;;;;;;83.90;19.35;;;;;;;2.11;100.00;103815.88;5052531;28;20123;-79
2022/01/13 21:24:30;;;;;;;71.75;19.42;;;;;;;2.14;100.00;103796.38;5052080;28;20052;-79
2022/01/13 21:30:19;;;;;;;124.15;20.25;;;;;;;2.15;100.00;103793.66;5052494;28;20116;-79
2022/01/13 21:36:07;;;;;;;66.45;18.15;;;;;;;2.17;100.00;103786.50;5052320;28;20455;-78
2022/01/13 21:41:55;;;;;;;94.90;19.15;;;;;;;2.16;100.00;103791.88;5052172;28;20036;-81
2022/01/13 21:47:43;;;;;;;65.22;16.88;;;;;;;2.18;100.00;103775.00;5052266;28;20072;-80
2022/01/13 21:53:30;;;;;;;41.97;16.90;;;;;;;2.09;100.00;103778.16;5051991;28;20040;-80
2022/01/13 21:59:17;;;;;;;79.65;18.80;;;;;;;2.07;100.00;103787.97;5051499;28;20072;-81
2022/01/13 22:05:06;;;;;;;102.47;19.65;;;;;;;2.08;100.00;103792.31;5051547;28;20115;-79
2022/01/13 22:10:58;;;;;;;80.72;20.48;;;;;;;2.10;100.00;103792.22;5051482;28;20052;-78
2022/01/13 22:16:45;;;;;;;81.78;19.15;;;;;;;2.15;100.00;103769.03;5051344;28;20082;-79
2022/01/13 22:22:39;;;;;;;90.68;19.45;;;;;;;2.00;100.00;103778.66;5051618;28;20052;-79
2022/01/13 22:28:27;;;;;;;80.35;19.67;;;;;;;1.94;100.00;103781.66;5051428;28;20091;-78
2022/01/13 22:34:14;;;;;;;87.95;19.33;;;;;;;2.04;100.00;103784.66;5051154;28;20091;-77
2022/01/13 22:40:00;;;;;;;124.65;22.20;;;;;;;2.00;100.00;103780.44;5053884;28;20440;-78
2022/01/13 22:45:50;;;;;;;107.35;21.10;;;;;;;2.00;100.00;103785.72;5054577;28;20045;-78
2022/01/13 22:51:37;;;;;;;207.45;28.67;;;;;;;1.90;100.00;103777.47;5054285;28;20444;-79
2022/01/13 22:57:27;;;;;;;163.52;24.65;;;;;;;1.93;100.00;103764.13;5053894;28;20040;-79
2022/01/13 22:59:52;;;;;;;242.38;28.38;;;;;;;1.99;100.00;103776.97;5053097;28;20128;-79
2022/01/13 23:05:40;;;;;;;238.10;30.50;;;;;;;1.99;100.00;103757.63;5054431;28;20104;-78
2022/01/13 23:11:28;;;;;;;144.30;26.58;;;;;;;2.04;100.00;103758.25;5053764;28;20044;-79
2022/01/13 23:23:21;;;;;;;119.55;28.45;;;;;;;1.95;100.00;103737.63;5054097;28;20448;-78
2022/01/13 23:29:09;;;;;;;130.60;26.00;;;;;;;1.97;100.00;103739.25;5053959;28;20516;-79
2022/01/13 23:34:56;;;;;;;88.30;20.33;;;;;;;1.97;100.00;103718.16;5053555;28;20039;-79
2022/01/13 23:40:43;;;;;;;131.55;25.90;;;;;;;1.92;100.00;103714.91;5053633;28;20132;-79
2022/01/13 23:52:36;;;;;;;197.30;27.00;;;;;;;1.88;100.00;103702.00;5053549;28;20056;-77
2022/01/13 23:58:23;;;;;;;125.35;23.90;;;;;;;1.89;100.00;103709.81;5053116;28;20043;-77
